sensor_id;sensor_type;location;lat;lon;timestamp;temperature;humidity
17170;DHT22;8700;48.222;16.342;2024-03-02T00:01:02;10.20;99.90
17170;DHT22;8700;48.222;16.342;2024-03-02T00:04:23;10.10;99.90
17170;DHT22;8700;48.222;16.342;2024-03-02T00:07:47;10.00;99.90
17170;DHT22;8700;48.222;16.342;2024-03-02T00:11:12;10.20;99.90
17170;DHT22;8700;48.222;16.342;2024-03-02T00:14:35;10.10;99.90
17170;DHT22;8700;48.222;16.342;2024-03-02T00:17:58;10.10;99.90
17170;DHT22;8700;48.222;16.342;2024-03-02T00:21:19;10.10;99.90
17170;DHT22;8700;48.222;16.342;2024-03-02T00:24:42;10.20;99.90
17170;DHT22;8700;48.222;16.342;2024-03-02T00:28:04;10.30;99.90
17170;DHT22;8700;48.222;16.342;2024-03-02T00:31:27;10.10;99.90
17170;DHT22;8700;48.222;16.342;2024-03-02T00:34:50;10.00;99.90
17170;DHT22;8700;48.222;16.342;2024-03-02T00:38:11;10.00;99.90
17170;DHT22;8700;48.222;16.342;2024-03-02T00:41:33;10.00;99.90
17170;DHT22;8700;48.222;16.342;2024-03-02T00:44:55;10.10;99.90
17170;DHT22;8700;48.222;16.342;2024-03-02T00:48:16;9.90;99.90
17170;DHT22;8700;48.222;16.342;2024-03-02T00:51:39;9.90;99.90
17170;DHT22;8700;48.222;16.342;2024-03-02T00:55:01;9.90;99.90
17170;DHT22;8700;48.222;16.342;2024-03-02T00:58:22;9.80;99.90
17170;DHT22;8700;48.222;16.342;2024-03-02T01:01:44;9.80;99.90
17170;DHT22;8700;48.222;16.342;2024-03-02T01:05:06;9.80;99.90
17170;DHT22;8700;48.222;16.342;2024-03-02T01:08:29;9.90;99.90
17170;DHT22;8700;48.222;16.342;2024-03-02T01:11:50;10.00;99.90
17170;DHT22;8700;48.222;16.342;2024-03-02T01:15:12;9.90;99.90
17170;DHT22;8700;48.222;16.342;2024-03-02T01:18:33;9.80;99.90
17170;DHT22;8700;48.222;16.342;2024-03-02T01:21:54;9.90;99.90
17170;DHT22;8700;48.222;16.342;2024-03-02T01:25:16;9.80;99.90
17170;DHT22;8700;48.222;16.342;2024-03-02T01:28:38;9.80;99.90
17170;DHT22;8700;48.222;16.342;2024-03-02T01:31:59;9.80;99.90
17170;DHT22;8700;48.222;16.342;2024-03-02T01:35:20;9.90;99.90
17170;DHT22;8700;48.222;16.342;2024-03-02T01:38:41;10.00;99.90
17170;DHT22;8700;48.222;16.342;2024-03-02T01:42:04;9.90;99.90
17170;DHT22;8700;48.222;16.342;2024-03-02T01:45:25;9.90;99.90
17170;DHT22;8700;48.222;16.342;2024-03-02T01:48:46;9.90;99.90
17170;DHT22;8700;48.222;16.342;2024-03-02T01:52:07;9.90;99.90
17170;DHT22;8700;48.222;16.342;2024-03-02T01:55:29;10.00;99.90
17170;DHT22;8700;48.222;16.342;2024-03-02T01:58:51;10.10;99.90
17170;DHT22;8700;48.222;16.342;2024-03-02T02:02:12;10.20;99.90
17170;DHT22;8700;48.222;16.342;2024-03-02T02:05:34;10.20;99.90
17170;DHT22;8700;48.222;16.342;2024-03-02T02:08:55;10.20;99.90
17170;DHT22;8700;48.222;16.342;2024-03-02T02:12:17;10.10;99.90
17170;DHT22;8700;48.222;16.342;2024-03-02T02:15:40;10.10;99.90
17170;DHT22;8700;48.222;16.342;2024-03-02T02:19:01;10.10;99.90
17170;DHT22;8700;48.222;16.342;2024-03-02T02:22:23;10.10;99.90
17170;DHT22;8700;48.222;16.342;2024-03-02T02:25:44;10.00;99.90
17170;DHT22;8700;48.222;16.342;2024-03-02T02:29:05;10.00;99.90
17170;DHT22;8700;48.222;16.342;2024-03-02T02:32:27;10.00;99.90
17170;DHT22;8700;48.222;16.342;2024-03-02T02:35:48;10.00;99.90
17170;DHT22;8700;48.222;16.342;2024-03-02T02:39:13;9.90;99.90
17170;DHT22;8700;48.222;16.342;2024-03-02T02:42:35;9.90;99.90
17170;DHT22;8700;48.222;16.342;2024-03-02T02:45:56;9.80;99.90
17170;DHT22;8700;48.222;16.342;2024-03-02T02:49:17;9.80;99.90
17170;DHT22;8700;48.222;16.342;2024-03-02T02:52:40;9.70;99.90
17170;DHT22;8700;48.222;16.342;2024-03-02T02:56:03;9.70;99.90
17170;DHT22;8700;48.222;16.342;2024-03-02T02:59:24;9.70;99.90
17170;DHT22;8700;48.222;16.342;2024-03-02T03:02:47;9.80;99.90
17170;DHT22;8700;48.222;16.342;2024-03-02T03:06:08;9.80;99.90
17170;DHT22;8700;48.222;16.342;2024-03-02T03:09:29;9.80;99.90
17170;DHT22;8700;48.222;16.342;2024-03-02T03:12:52;9.90;99.90
17170;DHT22;8700;48.222;16.342;2024-03-02T03:16:16;9.90;99.90
17170;DHT22;8700;48.222;16.342;2024-03-02T03:19:38;9.80;99.90
17170;DHT22;8700;48.222;16.342;2024-03-02T03:22:59;9.60;99.90
17170;DHT22;8700;48.222;16.342;2024-03-02T03:26:20;9.60;99.90
17170;DHT22;8700;48.222;16.342;2024-03-02T03:29:43;9.60;99.90
17170;DHT22;8700;48.222;16.342;2024-03-02T03:33:04;9.70;99.90
17170;DHT22;8700;48.222;16.342;2024-03-02T03:36:26;9.60;99.90
17170;DHT22;8700;48.222;16.342;2024-03-02T03:39:47;9.40;99.90
17170;DHT22;8700;48.222;16.342;2024-03-02T03:43:08;9.30;99.90
17170;DHT22;8700;48.222;16.342;2024-03-02T03:46:30;9.20;99.90
17170;DHT22;8700;48.222;16.342;2024-03-02T03:49:52;9.30;99.90
17170;DHT22;8700;48.222;16.342;2024-03-02T03:53:13;9.40;99.90
17170;DHT22;8700;48.222;16.342;2024-03-02T03:56:35;9.40;99.90
17170;DHT22;8700;48.222;16.342;2024-03-02T03:59:56;9.50;99.90
17170;DHT22;8700;48.222;16.342;2024-03-02T04:03:19;9.30;99.90
17170;DHT22;8700;48.222;16.342;2024-03-02T04:06:40;9.30;99.90
17170;DHT22;8700;48.222;16.342;2024-03-02T04:10:01;9.30;99.90
17170;DHT22;8700;48.222;16.342;2024-03-02T04:13:23;9.30;99.90
17170;DHT22;8700;48.222;16.342;2024-03-02T04:16:44;9.30;99.90
17170;DHT22;8700;48.222;16.342;2024-03-02T04:20:07;9.30;99.90
17170;DHT22;8700;48.222;16.342;2024-03-02T04:23:28;9.30;99.90
17170;DHT22;8700;48.222;16.342;2024-03-02T04:26:49;9.20;99.90
17170;DHT22;8700;48.222;16.342;2024-03-02T04:30:11;9.20;99.90
17170;DHT22;8700;48.222;16.342;2024-03-02T04:33:32;9.10;99.90
17170;DHT22;8700;48.222;16.342;2024-03-02T04:36:55;9.20;99.90
17170;DHT22;8700;48.222;16.342;2024-03-02T04:40:16;9.10;99.90
17170;DHT22;8700;48.222;16.342;2024-03-02T04:43:37;9.10;99.90
17170;DHT22;8700;48.222;16.342;2024-03-02T04:46:58;9.10;99.90
17170;DHT22;8700;48.222;16.342;2024-03-02T04:50:20;9.10;99.90
17170;DHT22;8700;48.222;16.342;2024-03-02T04:53:42;9.10;99.90
17170;DHT22;8700;48.222;16.342;2024-03-02T04:57:03;9.10;99.90
17170;DHT22;8700;48.222;16.342;2024-03-02T05:00:25;9.00;99.90
17170;DHT22;8700;48.222;16.342;2024-03-02T05:03:46;9.00;99.90
17170;DHT22;8700;48.222;16.342;2024-03-02T05:07:07;9.00;99.90
17170;DHT22;8700;48.222;16.342;2024-03-02T05:10:29;9.00;99.90
17170;DHT22;8700;48.222;16.342;2024-03-02T05:13:50;9.00;99.90
17170;DHT22;8700;48.222;16.342;2024-03-02T05:17:12;9.00;99.90
17170;DHT22;8700;48.222;16.342;2024-03-02T05:20:33;9.10;99.90
17170;DHT22;8700;48.222;16.342;2024-03-02T05:23:54;9.00;99.90
17170;DHT22;8700;48.222;16.342;2024-03-02T05:27:17;9.00;99.90
17170;DHT22;8700;48.222;16.342;2024-03-02T05:30:38;9.00;99.90
17170;DHT22;8700;48.222;16.342;2024-03-02T05:33:59;8.90;99.90
17170;DHT22;8700;48.222;16.342;2024-03-02T05:37:20;8.90;99.90
17170;DHT22;8700;48.222;16.342;2024-03-02T05:40:41;8.90;99.90
17170;DHT22;8700;48.222;16.342;2024-03-02T05:44:04;8.80;99.90
17170;DHT22;8700;48.222;16.342;2024-03-02T05:47:25;8.60;99.90
17170;DHT22;8700;48.222;16.342;2024-03-02T05:50:47;8.50;99.90
17170;DHT22;8700;48.222;16.342;2024-03-02T05:54:08;8.20;99.90
17170;DHT22;8700;48.222;16.342;2024-03-02T05:57:29;8.20;99.90
17170;DHT22;8700;48.222;16.342;2024-03-02T06:01:08;8.30;99.90
17170;DHT22;8700;48.222;16.342;2024-03-02T06:04:29;7.90;99.90
17170;DHT22;8700;48.222;16.342;2024-03-02T06:07:50;8.20;99.90
17170;DHT22;8700;48.222;16.342;2024-03-02T06:11:12;8.20;99.90
17170;DHT22;8700;48.222;16.342;2024-03-02T06:14:33;8.00;99.90
17170;DHT22;8700;48.222;16.342;2024-03-02T06:17:55;7.80;99.90
17170;DHT22;8700;48.222;16.342;2024-03-02T06:21:16;7.90;99.90
17170;DHT22;8700;48.222;16.342;2024-03-02T06:24:38;8.00;99.90
17170;DHT22;8700;48.222;16.342;2024-03-02T06:27:59;8.10;99.90
17170;DHT22;8700;48.222;16.342;2024-03-02T06:31:20;8.20;99.90
17170;DHT22;8700;48.222;16.342;2024-03-02T06:34:43;8.30;99.90
17170;DHT22;8700;48.222;16.342;2024-03-02T06:38:04;8.50;99.90
17170;DHT22;8700;48.222;16.342;2024-03-02T06:41:25;8.50;99.90
17170;DHT22;8700;48.222;16.342;2024-03-02T06:44:46;8.60;99.90
17170;DHT22;8700;48.222;16.342;2024-03-02T06:48:07;8.70;99.90
17170;DHT22;8700;48.222;16.342;2024-03-02T06:51:30;8.80;99.90
17170;DHT22;8700;48.222;16.342;2024-03-02T06:54:51;8.90;99.90
17170;DHT22;8700;48.222;16.342;2024-03-02T06:58:12;8.70;99.90
17170;DHT22;8700;48.222;16.342;2024-03-02T07:01:34;8.70;99.90
17170;DHT22;8700;48.222;16.342;2024-03-02T07:04:56;8.90;99.90
17170;DHT22;8700;48.222;16.342;2024-03-02T07:08:18;8.80;99.90
17170;DHT22;8700;48.222;16.342;2024-03-02T07:11:39;8.70;99.90
17170;DHT22;8700;48.222;16.342;2024-03-02T07:15:01;8.70;99.90
17170;DHT22;8700;48.222;16.342;2024-03-02T07:18:39;8.90;99.90
17170;DHT22;8700;48.222;16.342;2024-03-02T07:22:02;9.00;99.90
17170;DHT22;8700;48.222;16.342;2024-03-02T07:25:28;8.70;99.90
17170;DHT22;8700;48.222;16.342;2024-03-02T07:28:50;8.40;99.90
17170;DHT22;8700;48.222;16.342;2024-03-02T07:32:11;8.30;99.90
17170;DHT22;8700;48.222;16.342;2024-03-02T07:35:32;8.40;99.90
17170;DHT22;8700;48.222;16.342;2024-03-02T07:38:54;8.40;99.90
17170;DHT22;8700;48.222;16.342;2024-03-02T07:42:16;8.60;99.90
17170;DHT22;8700;48.222;16.342;2024-03-02T07:45:39;8.90;99.90
17170;DHT22;8700;48.222;16.342;2024-03-02T07:49:00;8.90;99.90
17170;DHT22;8700;48.222;16.342;2024-03-02T07:52:21;8.80;99.90
17170;DHT22;8700;48.222;16.342;2024-03-02T07:55:42;8.50;99.90
17170;DHT22;8700;48.222;16.342;2024-03-02T07:59:05;8.50;99.90
17170;DHT22;8700;48.222;16.342;2024-03-02T08:02:27;8.70;99.90
17170;DHT22;8700;48.222;16.342;2024-03-02T08:05:48;9.10;99.90
17170;DHT22;8700;48.222;16.342;2024-03-02T08:09:09;9.10;99.90
17170;DHT22;8700;48.222;16.342;2024-03-02T08:12:30;9.30;99.90
17170;DHT22;8700;48.222;16.342;2024-03-02T08:15:53;9.50;99.90
17170;DHT22;8700;48.222;16.342;2024-03-02T08:19:14;9.80;99.90
17170;DHT22;8700;48.222;16.342;2024-03-02T08:22:35;10.00;99.90
17170;DHT22;8700;48.222;16.342;2024-03-02T08:25:56;10.30;99.90
17170;DHT22;8700;48.222;16.342;2024-03-02T08:29:17;10.50;99.90
17170;DHT22;8700;48.222;16.342;2024-03-02T08:32:40;10.20;99.90
17170;DHT22;8700;48.222;16.342;2024-03-02T08:36:01;9.80;99.90
17170;DHT22;8700;48.222;16.342;2024-03-02T08:39:23;9.70;99.90
17170;DHT22;8700;48.222;16.342;2024-03-02T08:42:44;9.60;99.90
17170;DHT22;8700;48.222;16.342;2024-03-02T08:46:06;9.70;99.90
17170;DHT22;8700;48.222;16.342;2024-03-02T08:49:28;9.80;99.90
17170;DHT22;8700;48.222;16.342;2024-03-02T08:52:49;10.10;99.90
17170;DHT22;8700;48.222;16.342;2024-03-02T08:56:10;10.10;99.90
17170;DHT22;8700;48.222;16.342;2024-03-02T08:59:33;10.30;99.90
17170;DHT22;8700;48.222;16.342;2024-03-02T09:02:54;10.00;99.90
17170;DHT22;8700;48.222;16.342;2024-03-02T09:06:16;10.40;99.90
17170;DHT22;8700;48.222;16.342;2024-03-02T09:09:39;10.60;99.90
17170;DHT22;8700;48.222;16.342;2024-03-02T09:13:00;10.50;99.90
17170;DHT22;8700;48.222;16.342;2024-03-02T09:16:21;10.60;99.90
17170;DHT22;8700;48.222;16.342;2024-03-02T09:19:43;10.70;99.90
17170;DHT22;8700;48.222;16.342;2024-03-02T09:23:05;10.50;99.90
17170;DHT22;8700;48.222;16.342;2024-03-02T09:26:26;10.70;99.90
17170;DHT22;8700;48.222;16.342;2024-03-02T09:29:47;11.10;99.90
17170;DHT22;8700;48.222;16.342;2024-03-02T09:33:08;11.70;99.90
17170;DHT22;8700;48.222;16.342;2024-03-02T09:36:30;11.90;99.90
17170;DHT22;8700;48.222;16.342;2024-03-02T09:39:52;12.00;99.90
17170;DHT22;8700;48.222;16.342;2024-03-02T09:43:14;12.20;99.90
17170;DHT22;8700;48.222;16.342;2024-03-02T09:46:35;12.10;99.90
17170;DHT22;8700;48.222;16.342;2024-03-02T09:49:56;11.90;99.90
17170;DHT22;8700;48.222;16.342;2024-03-02T09:53:18;11.80;99.90
17170;DHT22;8700;48.222;16.342;2024-03-02T09:56:41;11.90;99.90
17170;DHT22;8700;48.222;16.342;2024-03-02T10:00:02;11.80;99.90
17170;DHT22;8700;48.222;16.342;2024-03-02T10:03:24;12.00;99.90
17170;DHT22;8700;48.222;16.342;2024-03-02T10:06:45;12.10;99.90
17170;DHT22;8700;48.222;16.342;2024-03-02T10:10:13;12.30;99.90
17170;DHT22;8700;48.222;16.342;2024-03-02T10:13:36;12.40;99.90
17170;DHT22;8700;48.222;16.342;2024-03-02T10:17:02;12.40;99.90
17170;DHT22;8700;48.222;16.342;2024-03-02T10:20:25;12.10;99.90
17170;DHT22;8700;48.222;16.342;2024-03-02T10:23:48;12.20;99.90
17170;DHT22;8700;48.222;16.342;2024-03-02T10:27:14;12.30;99.90
17170;DHT22;8700;48.222;16.342;2024-03-02T10:30:37;12.70;99.90
17170;DHT22;8700;48.222;16.342;2024-03-02T10:33:58;12.70;99.90
17170;DHT22;8700;48.222;16.342;2024-03-02T10:37:21;12.70;99.90
17170;DHT22;8700;48.222;16.342;2024-03-02T10:40:46;12.50;99.90
17170;DHT22;8700;48.222;16.342;2024-03-02T10:44:09;12.60;99.90
17170;DHT22;8700;48.222;16.342;2024-03-02T10:47:33;12.70;99.90
17170;DHT22;8700;48.222;16.342;2024-03-02T10:50:54;12.60;99.90
17170;DHT22;8700;48.222;16.342;2024-03-02T10:54:17;12.50;99.90
17170;DHT22;8700;48.222;16.342;2024-03-02T10:57:50;12.70;99.90
17170;DHT22;8700;48.222;16.342;2024-03-02T11:01:13;12.70;99.90
17170;DHT22;8700;48.222;16.342;2024-03-02T11:04:37;12.70;99.90
17170;DHT22;8700;48.222;16.342;2024-03-02T11:08:01;13.00;99.90
17170;DHT22;8700;48.222;16.342;2024-03-02T11:11:29;13.10;99.90
17170;DHT22;8700;48.222;16.342;2024-03-02T11:14:51;13.20;99.90
17170;DHT22;8700;48.222;16.342;2024-03-02T11:18:13;13.30;99.90
17170;DHT22;8700;48.222;16.342;2024-03-02T11:21:36;13.70;99.90
17170;DHT22;8700;48.222;16.342;2024-03-02T11:24:58;13.80;99.90
17170;DHT22;8700;48.222;16.342;2024-03-02T11:28:35;13.70;99.90
17170;DHT22;8700;48.222;16.342;2024-03-02T11:31:59;13.80;99.90
17170;DHT22;8700;48.222;16.342;2024-03-02T11:35:20;13.30;99.90
17170;DHT22;8700;48.222;16.342;2024-03-02T11:38:43;13.40;99.90
17170;DHT22;8700;48.222;16.342;2024-03-02T11:42:06;13.70;99.90
17170;DHT22;8700;48.222;16.342;2024-03-02T11:45:29;14.20;99.90
17170;DHT22;8700;48.222;16.342;2024-03-02T11:48:51;14.30;99.90
17170;DHT22;8700;48.222;16.342;2024-03-02T11:52:13;13.90;99.90
17170;DHT22;8700;48.222;16.342;2024-03-02T11:55:37;13.70;99.90
17170;DHT22;8700;48.222;16.342;2024-03-02T11:59:01;14.00;99.90
17170;DHT22;8700;48.222;16.342;2024-03-02T12:02:22;14.10;99.90
17170;DHT22;8700;48.222;16.342;2024-03-02T12:05:44;13.50;99.90
17170;DHT22;8700;48.222;16.342;2024-03-02T12:09:09;13.70;99.90
17170;DHT22;8700;48.222;16.342;2024-03-02T12:12:33;13.40;99.90
17170;DHT22;8700;48.222;16.342;2024-03-02T12:15:55;12.80;99.90
17170;DHT22;8700;48.222;16.342;2024-03-02T12:19:17;12.90;99.90
17170;DHT22;8700;48.222;16.342;2024-03-02T12:22:40;13.10;99.90
17170;DHT22;8700;48.222;16.342;2024-03-02T12:26:02;12.80;99.90
17170;DHT22;8700;48.222;16.342;2024-03-02T12:29:24;13.20;99.90
17170;DHT22;8700;48.222;16.342;2024-03-02T12:32:46;13.40;99.90
17170;DHT22;8700;48.222;16.342;2024-03-02T12:36:09;13.60;99.90
17170;DHT22;8700;48.222;16.342;2024-03-02T12:39:31;13.60;99.90
17170;DHT22;8700;48.222;16.342;2024-03-02T12:42:53;13.70;99.90
17170;DHT22;8700;48.222;16.342;2024-03-02T12:46:15;13.90;99.90
17170;DHT22;8700;48.222;16.342;2024-03-02T12:49:36;13.80;99.90
17170;DHT22;8700;48.222;16.342;2024-03-02T12:52:57;13.60;99.90
17170;DHT22;8700;48.222;16.342;2024-03-02T12:56:19;13.40;99.90
17170;DHT22;8700;48.222;16.342;2024-03-02T12:59:45;13.50;99.90
17170;DHT22;8700;48.222;16.342;2024-03-02T13:03:11;13.50;99.90
17170;DHT22;8700;48.222;16.342;2024-03-02T13:06:33;13.80;99.90
17170;DHT22;8700;48.222;16.342;2024-03-02T13:09:55;14.40;99.90
17170;DHT22;8700;48.222;16.342;2024-03-02T13:13:16;14.50;99.90
17170;DHT22;8700;48.222;16.342;2024-03-02T13:16:38;14.60;99.90
17170;DHT22;8700;48.222;16.342;2024-03-02T13:20:02;14.50;99.90
17170;DHT22;8700;48.222;16.342;2024-03-02T13:23:23;14.50;99.90
17170;DHT22;8700;48.222;16.342;2024-03-02T13:26:44;14.20;99.90
17170;DHT22;8700;48.222;16.342;2024-03-02T13:30:06;14.50;99.90
17170;DHT22;8700;48.222;16.342;2024-03-02T13:33:29;14.00;99.90
17170;DHT22;8700;48.222;16.342;2024-03-02T13:36:52;13.90;99.90
17170;DHT22;8700;48.222;16.342;2024-03-02T13:40:13;14.20;99.90
17170;DHT22;8700;48.222;16.342;2024-03-02T13:43:37;14.10;99.90
17170;DHT22;8700;48.222;16.342;2024-03-02T13:47:00;13.90;99.90
17170;DHT22;8700;48.222;16.342;2024-03-02T13:50:21;13.50;99.90
17170;DHT22;8700;48.222;16.342;2024-03-02T13:53:43;13.90;99.90
17170;DHT22;8700;48.222;16.342;2024-03-02T13:57:04;14.30;99.90
17170;DHT22;8700;48.222;16.342;2024-03-02T14:00:26;14.40;99.90
17170;DHT22;8700;48.222;16.342;2024-03-02T14:03:48;14.30;99.90
17170;DHT22;8700;48.222;16.342;2024-03-02T14:07:09;14.30;99.90
17170;DHT22;8700;48.222;16.342;2024-03-02T14:10:33;14.30;99.90
17170;DHT22;8700;48.222;16.342;2024-03-02T14:13:55;14.40;99.90
17170;DHT22;8700;48.222;16.342;2024-03-02T14:17:16;13.70;99.90
17170;DHT22;8700;48.222;16.342;2024-03-02T14:20:38;13.60;99.90
17170;DHT22;8700;48.222;16.342;2024-03-02T14:23:59;13.60;99.90
17170;DHT22;8700;48.222;16.342;2024-03-02T14:27:21;13.60;99.90
17170;DHT22;8700;48.222;16.342;2024-03-02T14:30:42;14.00;99.90
17170;DHT22;8700;48.222;16.342;2024-03-02T14:34:05;14.40;99.90
17170;DHT22;8700;48.222;16.342;2024-03-02T14:37:26;14.20;99.90
17170;DHT22;8700;48.222;16.342;2024-03-02T14:40:47;14.00;99.90
17170;DHT22;8700;48.222;16.342;2024-03-02T14:44:09;14.40;99.90
17170;DHT22;8700;48.222;16.342;2024-03-02T14:47:32;14.20;99.90
17170;DHT22;8700;48.222;16.342;2024-03-02T14:50:55;14.40;99.90
17170;DHT22;8700;48.222;16.342;2024-03-02T14:54:16;14.60;99.90
17170;DHT22;8700;48.222;16.342;2024-03-02T14:57:37;14.40;99.90
17170;DHT22;8700;48.222;16.342;2024-03-02T15:00:59;14.00;99.90
17170;DHT22;8700;48.222;16.342;2024-03-02T15:04:21;14.20;99.90
17170;DHT22;8700;48.222;16.342;2024-03-02T15:07:42;14.00;99.90
17170;DHT22;8700;48.222;16.342;2024-03-02T15:11:03;13.40;99.90
17170;DHT22;8700;48.222;16.342;2024-03-02T15:14:24;13.30;99.90
17170;DHT22;8700;48.222;16.342;2024-03-02T15:17:47;13.60;99.90
17170;DHT22;8700;48.222;16.342;2024-03-02T15:21:08;14.10;99.90
17170;DHT22;8700;48.222;16.342;2024-03-02T15:24:29;14.00;99.90
17170;DHT22;8700;48.222;16.342;2024-03-02T15:27:50;13.90;99.90
17170;DHT22;8700;48.222;16.342;2024-03-02T15:31:11;13.90;99.90
17170;DHT22;8700;48.222;16.342;2024-03-02T15:34:34;13.90;99.90
17170;DHT22;8700;48.222;16.342;2024-03-02T15:37:55;13.80;99.90
17170;DHT22;8700;48.222;16.342;2024-03-02T15:41:16;13.90;99.90
17170;DHT22;8700;48.222;16.342;2024-03-02T15:44:37;13.70;99.90
17170;DHT22;8700;48.222;16.342;2024-03-02T15:47:59;13.80;99.90
17170;DHT22;8700;48.222;16.342;2024-03-02T15:51:21;13.70;99.90
17170;DHT22;8700;48.222;16.342;2024-03-02T15:54:42;13.70;99.90
17170;DHT22;8700;48.222;16.342;2024-03-02T15:58:04;13.70;99.90
17170;DHT22;8700;48.222;16.342;2024-03-02T16:01:25;13.60;99.90
17170;DHT22;8700;48.222;16.342;2024-03-02T16:04:48;13.50;99.90
17170;DHT22;8700;48.222;16.342;2024-03-02T16:08:10;13.40;99.90
17170;DHT22;8700;48.222;16.342;2024-03-02T16:11:31;13.40;99.90
17170;DHT22;8700;48.222;16.342;2024-03-02T16:14:53;13.30;99.90
17170;DHT22;8700;48.222;16.342;2024-03-02T16:18:15;13.20;99.90
17170;DHT22;8700;48.222;16.342;2024-03-02T16:21:36;13.10;99.90
17170;DHT22;8700;48.222;16.342;2024-03-02T16:24:58;13.30;99.90
17170;DHT22;8700;48.222;16.342;2024-03-02T16:28:20;13.10;99.90
17170;DHT22;8700;48.222;16.342;2024-03-02T16:31:40;13.20;99.90
17170;DHT22;8700;48.222;16.342;2024-03-02T16:35:02;13.10;99.90
17170;DHT22;8700;48.222;16.342;2024-03-02T16:38:24;13.10;99.90
17170;DHT22;8700;48.222;16.342;2024-03-02T16:41:47;12.70;99.90
17170;DHT22;8700;48.222;16.342;2024-03-02T16:45:09;12.70;99.90
17170;DHT22;8700;48.222;16.342;2024-03-02T16:48:30;12.40;99.90
17170;DHT22;8700;48.222;16.342;2024-03-02T16:51:51;12.30;99.90
17170;DHT22;8700;48.222;16.342;2024-03-02T16:55:12;12.50;99.90
17170;DHT22;8700;48.222;16.342;2024-03-02T16:58:35;12.70;99.90
17170;DHT22;8700;48.222;16.342;2024-03-02T17:01:57;12.90;99.90
17170;DHT22;8700;48.222;16.342;2024-03-02T17:05:19;12.80;99.90
17170;DHT22;8700;48.222;16.342;2024-03-02T17:08:41;12.60;99.90
17170;DHT22;8700;48.222;16.342;2024-03-02T17:12:03;12.70;99.90
17170;DHT22;8700;48.222;16.342;2024-03-02T17:15:25;12.60;99.90
17170;DHT22;8700;48.222;16.342;2024-03-02T17:18:47;12.60;99.90
17170;DHT22;8700;48.222;16.342;2024-03-02T17:22:08;12.00;99.90
17170;DHT22;8700;48.222;16.342;2024-03-02T17:25:29;12.30;99.90
17170;DHT22;8700;48.222;16.342;2024-03-02T17:28:50;12.50;99.90
17170;DHT22;8700;48.222;16.342;2024-03-02T17:32:12;12.70;99.90
17170;DHT22;8700;48.222;16.342;2024-03-02T17:35:33;12.60;99.90
17170;DHT22;8700;48.222;16.342;2024-03-02T17:38:55;12.60;99.90
17170;DHT22;8700;48.222;16.342;2024-03-02T17:42:16;12.50;99.90
17170;DHT22;8700;48.222;16.342;2024-03-02T17:45:37;12.50;99.90
17170;DHT22;8700;48.222;16.342;2024-03-02T17:49:00;12.60;99.90
17170;DHT22;8700;48.222;16.342;2024-03-02T17:52:21;12.50;99.90
17170;DHT22;8700;48.222;16.342;2024-03-02T17:55:42;12.40;99.90
17170;DHT22;8700;48.222;16.342;2024-03-02T17:59:03;11.80;99.90
17170;DHT22;8700;48.222;16.342;2024-03-02T18:02:24;11.50;99.90
17170;DHT22;8700;48.222;16.342;2024-03-02T18:05:48;11.40;99.90
17170;DHT22;8700;48.222;16.342;2024-03-02T18:09:09;11.60;99.90
17170;DHT22;8700;48.222;16.342;2024-03-02T18:12:30;11.90;99.90
17170;DHT22;8700;48.222;16.342;2024-03-02T18:15:52;12.00;99.90
17170;DHT22;8700;48.222;16.342;2024-03-02T18:19:13;11.90;99.90
17170;DHT22;8700;48.222;16.342;2024-03-02T18:22:36;11.60;99.90
17170;DHT22;8700;48.222;16.342;2024-03-02T18:25:57;11.70;99.90
17170;DHT22;8700;48.222;16.342;2024-03-02T18:29:18;11.80;99.90
17170;DHT22;8700;48.222;16.342;2024-03-02T18:32:39;11.60;99.90
17170;DHT22;8700;48.222;16.342;2024-03-02T18:36:01;11.70;99.90
17170;DHT22;8700;48.222;16.342;2024-03-02T18:39:25;11.70;99.90
17170;DHT22;8700;48.222;16.342;2024-03-02T18:42:46;11.60;99.90
17170;DHT22;8700;48.222;16.342;2024-03-02T18:46:07;11.60;99.90
17170;DHT22;8700;48.222;16.342;2024-03-02T18:49:29;11.50;99.90
17170;DHT22;8700;48.222;16.342;2024-03-02T18:52:50;11.40;99.90
17170;DHT22;8700;48.222;16.342;2024-03-02T18:56:13;11.20;99.90
17170;DHT22;8700;48.222;16.342;2024-03-02T18:59:35;11.00;99.90
17170;DHT22;8700;48.222;16.342;2024-03-02T19:02:56;10.80;99.90
17170;DHT22;8700;48.222;16.342;2024-03-02T19:06:17;10.70;99.90
17170;DHT22;8700;48.222;16.342;2024-03-02T19:09:38;10.70;99.90
17170;DHT22;8700;48.222;16.342;2024-03-02T19:13:01;10.80;99.90
17170;DHT22;8700;48.222;16.342;2024-03-02T19:16:21;10.70;99.90
17170;DHT22;8700;48.222;16.342;2024-03-02T19:19:43;10.90;99.90
17170;DHT22;8700;48.222;16.342;2024-03-02T19:23:04;11.00;99.90
17170;DHT22;8700;48.222;16.342;2024-03-02T19:26:26;10.80;99.90
17170;DHT22;8700;48.222;16.342;2024-03-02T19:29:49;10.80;99.90
17170;DHT22;8700;48.222;16.342;2024-03-02T19:33:10;11.10;99.90
17170;DHT22;8700;48.222;16.342;2024-03-02T19:36:33;11.00;99.90
17170;DHT22;8700;48.222;16.342;2024-03-02T19:39:55;10.90;99.90
17170;DHT22;8700;48.222;16.342;2024-03-02T19:43:16;10.80;99.90
17170;DHT22;8700;48.222;16.342;2024-03-02T19:46:39;10.60;99.90
17170;DHT22;8700;48.222;16.342;2024-03-02T19:50:00;10.40;99.90
17170;DHT22;8700;48.222;16.342;2024-03-02T19:53:24;10.60;99.90
17170;DHT22;8700;48.222;16.342;2024-03-02T19:56:45;10.60;99.90
17170;DHT22;8700;48.222;16.342;2024-03-02T20:00:07;10.70;99.90
17170;DHT22;8700;48.222;16.342;2024-03-02T20:03:30;10.60;99.90
17170;DHT22;8700;48.222;16.342;2024-03-02T20:06:52;10.50;99.90
17170;DHT22;8700;48.222;16.342;2024-03-02T20:10:13;10.50;99.90
17170;DHT22;8700;48.222;16.342;2024-03-02T20:13:34;10.40;99.90
17170;DHT22;8700;48.222;16.342;2024-03-02T20:16:56;10.40;99.90
17170;DHT22;8700;48.222;16.342;2024-03-02T20:20:18;10.50;99.90
17170;DHT22;8700;48.222;16.342;2024-03-02T20:23:39;10.80;99.90
17170;DHT22;8700;48.222;16.342;2024-03-02T20:27:00;11.00;99.90
17170;DHT22;8700;48.222;16.342;2024-03-02T20:30:24;10.80;99.90
17170;DHT22;8700;48.222;16.342;2024-03-02T20:33:45;10.80;99.90
17170;DHT22;8700;48.222;16.342;2024-03-02T20:37:08;10.90;99.90
17170;DHT22;8700;48.222;16.342;2024-03-02T20:40:29;10.90;99.90
17170;DHT22;8700;48.222;16.342;2024-03-02T20:43:50;10.80;99.90
17170;DHT22;8700;48.222;16.342;2024-03-02T20:47:11;10.60;99.90
17170;DHT22;8700;48.222;16.342;2024-03-02T20:50:32;10.40;99.90
17170;DHT22;8700;48.222;16.342;2024-03-02T20:53:55;10.30;99.90
17170;DHT22;8700;48.222;16.342;2024-03-02T20:57:17;10.20;99.90
17170;DHT22;8700;48.222;16.342;2024-03-02T21:00:38;10.30;99.90
17170;DHT22;8700;48.222;16.342;2024-03-02T21:04:01;10.50;99.90
17170;DHT22;8700;48.222;16.342;2024-03-02T21:07:22;10.40;99.90
17170;DHT22;8700;48.222;16.342;2024-03-02T21:10:45;10.30;99.90
17170;DHT22;8700;48.222;16.342;2024-03-02T21:14:06;10.20;99.90
17170;DHT22;8700;48.222;16.342;2024-03-02T21:17:27;10.30;99.90
17170;DHT22;8700;48.222;16.342;2024-03-02T21:20:48;10.10;99.90